createdAt,value
2017-03-14T00:00:17.656Z,68.04
2017-03-14T00:01:31.045Z,68.32
2017-03-14T00:02:44.473Z,68.23
2017-03-14T00:03:58.007Z,68.7
2017-03-14T00:05:11.880Z,68.23
2017-03-14T00:06:26.589Z,68.23
2017-03-14T00:07:40.035Z,68.41
2017-03-14T00:08:53.571Z,68.32
2017-03-14T00:10:07.895Z,68.23
2017-03-14T00:11:21.863Z,68.32
2017-03-14T00:12:35.925Z,68.13
2017-03-14T00:13:49.472Z,68.7
2017-03-14T00:15:03.160Z,68.23
2017-03-14T00:16:17.471Z,68.23
2017-03-14T00:17:31.738Z,68.13
2017-03-14T00:18:47.074Z,68.23
2017-03-14T00:20:00.649Z,68.98
2017-03-14T00:21:14.120Z,68.7
2017-03-14T00:22:27.893Z,68.85
2017-03-14T00:23:41.489Z,68.98
2017-03-14T00:24:55.003Z,68.76
2017-03-14T00:26:08.523Z,69.04
2017-03-14T00:27:22.022Z,69.17
2017-03-14T00:28:36.224Z,69.36
2017-03-14T00:29:50.613Z,69.23
2017-03-14T00:31:04.093Z,69.33
2017-03-14T00:32:17.557Z,69.36
2017-03-14T00:33:31.487Z,69.36
2017-03-14T00:34:45.747Z,69.13
2017-03-14T00:35:59.676Z,69.61
2017-03-14T00:37:13.229Z,69.99
2017-03-14T00:38:26.744Z,69.99
2017-03-14T00:39:40.217Z,70.09
2017-03-14T00:40:54.203Z,69.99
2017-03-14T00:42:07.685Z,70.09
2017-03-14T00:43:21.537Z,70.37
2017-03-14T00:44:35.878Z,70.18
2017-03-14T00:45:49.422Z,70.28
2017-03-14T00:47:02.929Z,69.9
2017-03-14T00:48:16.840Z,70.18
2017-03-14T00:49:30.713Z,70.09
2017-03-14T00:50:44.366Z,70.18
2017-03-14T00:51:57.865Z,70.09
2017-03-14T00:53:12.062Z,70.28
2017-03-14T00:54:25.959Z,70.09
2017-03-14T00:55:45.072Z,70.28
2017-03-14T00:56:59.435Z,70.47
2017-03-14T00:58:13.295Z,70.84
2017-03-14T00:59:27.072Z,70.94
2017-03-14T01:00:40.469Z,70.84
2017-03-14T01:01:53.975Z,70.56
2017-03-14T01:03:07.511Z,70.37
2017-03-14T01:04:20.918Z,70.65
2017-03-14T01:05:35.084Z,70.75
2017-03-14T01:06:48.888Z,70.84
2017-03-14T01:08:02.446Z,70.94
2017-03-14T01:09:16.425Z,71.03
2017-03-14T01:10:29.879Z,70.84
2017-03-14T01:11:43.372Z,71.13
2017-03-14T01:12:57.422Z,71.7
2017-03-14T01:14:10.828Z,71.41
2017-03-14T01:15:25.068Z,71.51
2017-03-14T01:16:38.559Z,70.84
2017-03-14T01:17:52.104Z,71.03
2017-03-14T01:19:05.939Z,70.94
2017-03-14T01:20:19.795Z,71.51
2017-03-14T01:21:33.657Z,71.26
2017-03-14T01:22:47.185Z,71.98
2017-03-14T01:24:01.002Z,71.98
2017-03-14T01:25:14.484Z,72.27
2017-03-14T01:26:27.939Z,71.8
2017-03-14T01:27:41.400Z,72.08
2017-03-14T01:28:55.275Z,71.89
2017-03-14T01:30:08.680Z,71.7
2017-03-14T01:31:22.528Z,71.13
2017-03-14T01:32:36.374Z,71.41
2017-03-14T01:33:50.339Z,71.6
2017-03-14T01:35:03.761Z,71.13
2017-03-14T01:36:17.596Z,71.6
2017-03-14T01:37:31.468Z,71.98
2017-03-14T01:38:44.986Z,71.98
2017-03-14T01:39:58.431Z,72.64
2017-03-14T01:41:11.849Z,72.21
2017-03-14T01:42:25.769Z,71.17
2017-03-14T01:43:39.632Z,71.07
2017-03-14T01:44:54.511Z,70.98
2017-03-14T01:46:07.890Z,70.84
2017-03-14T01:47:21.355Z,70.84
2017-03-14T01:48:35.086Z,71.13
2017-03-14T01:49:49.216Z,70.84
2017-03-14T01:51:02.692Z,71.51
2017-03-14T01:52:16.131Z,71.32
2017-03-14T01:53:30.014Z,71.41
2017-03-14T01:54:43.753Z,71.51
2017-03-14T01:55:57.914Z,71.7
2017-03-14T01:57:11.855Z,71.41
2017-03-14T01:58:25.251Z,72.27
2017-03-14T01:59:38.708Z,71.26
2017-03-14T02:00:52.749Z,70.94
2017-03-14T02:02:06.628Z,71.03
2017-03-14T02:03:20.078Z,70.84
2017-03-14T02:04:36.588Z,70.75
2017-03-14T02:05:56.222Z,71.13
2017-03-14T02:07:17.453Z,71.7
2017-03-14T02:08:38.082Z,71.32
2017-03-14T02:09:58.461Z,71.6
2017-03-14T02:11:19.910Z,71.89
2017-03-14T02:12:44.021Z,71.89
2017-03-14T02:14:00.950Z,72.08
2017-03-14T02:15:19.682Z,72.27
2017-03-14T02:16:33.141Z,71.7
2017-03-14T02:17:59.604Z,71.7
2017-03-14T02:19:13.865Z,71.98
2017-03-14T02:20:27.359Z,71.98
2017-03-14T02:21:41.195Z,71.98
2017-03-14T02:22:54.698Z,71.98
2017-03-14T02:24:08.161Z,72.27
2017-03-14T02:25:21.601Z,72.33
2017-03-14T02:26:35.496Z,72.61
2017-03-14T02:27:48.938Z,73.08
2017-03-14T02:29:02.329Z,72.8
2017-03-14T02:30:16.122Z,73.27
2017-03-14T02:31:29.640Z,73.37
2017-03-14T02:32:43.010Z,73.75
2017-03-14T02:33:56.457Z,73.56
2017-03-14T02:35:10.328Z,73.84
2017-03-14T02:36:23.863Z,73.75
2017-03-14T02:37:37.285Z,73.75
2017-03-14T02:38:50.794Z,73.56
2017-03-14T02:40:04.203Z,73.94
2017-03-14T02:41:17.656Z,74.32
2017-03-14T02:42:31.265Z,74.41
2017-03-14T02:43:45.141Z,73.94
2017-03-14T02:44:58.566Z,74.54
2017-03-14T02:46:12.387Z,74.45
2017-03-14T02:47:26.251Z,74.35
2017-03-14T02:48:40.177Z,74.45
2017-03-14T02:49:53.614Z,74.45
2017-03-14T02:51:07.022Z,74.16
2017-03-14T02:52:20.552Z,73.97
2017-03-14T02:53:34.006Z,74.45
2017-03-14T02:54:47.420Z,74.26
2017-03-14T02:56:00.940Z,74.26
2017-03-14T02:57:14.398Z,73.97
2017-03-14T02:58:28.640Z,74.07
2017-03-14T02:59:42.482Z,74.07
2017-03-14T03:00:56.325Z,74.35
2017-03-14T03:02:09.826Z,74.26
2017-03-14T03:03:23.313Z,73.97
2017-03-14T03:04:36.722Z,74.26
2017-03-14T03:05:50.248Z,73.97
2017-03-14T03:07:03.712Z,74.26
2017-03-14T03:08:17.226Z,74.26
2017-03-14T03:09:31.988Z,74.45
2017-03-14T03:10:46.262Z,74.64
2017-03-14T03:11:59.688Z,74.54
2017-03-14T03:13:13.145Z,75.21
2017-03-14T03:14:26.652Z,75.21
2017-03-14T03:15:40.148Z,74.92
2017-03-14T03:16:53.553Z,74.87
2017-03-14T03:18:07.380Z,74.68
2017-03-14T03:19:20.982Z,74.39
2017-03-14T03:20:34.415Z,74.11
2017-03-14T03:21:48.894Z,74.49
2017-03-14T03:23:02.314Z,74.11
2017-03-14T03:24:16.491Z,74.11
2017-03-14T03:25:29.851Z,73.72
2017-03-14T03:26:44.541Z,74.01
2017-03-14T03:27:57.997Z,73.44
2017-03-14T03:29:14.393Z,73.82
2017-03-14T03:30:27.861Z,73.44
2017-03-14T03:31:41.779Z,73.07
2017-03-14T03:32:55.248Z,72.88
2017-03-14T03:34:09.094Z,72.49
2017-03-14T03:35:22.555Z,72.88
2017-03-14T03:36:36.025Z,73.6
2017-03-14T03:37:49.447Z,73.97
2017-03-14T03:39:02.885Z,74.01
2017-03-14T03:40:16.772Z,73.92
2017-03-14T03:41:30.244Z,73.82
2017-03-14T03:42:43.889Z,74.01
2017-03-14T03:43:57.342Z,73.72
2017-03-14T03:45:11.337Z,73.72
2017-03-14T03:46:25.251Z,74.3
2017-03-14T03:47:39.030Z,74.54
2017-03-14T03:48:52.918Z,74.73
2017-03-14T03:50:06.347Z,74.45
2017-03-14T03:51:19.869Z,74.26
2017-03-14T03:52:33.322Z,74.07
2017-03-14T03:53:46.707Z,74.64
2017-03-14T03:55:00.892Z,74.83
2017-03-14T03:56:14.341Z,74.96
2017-03-14T03:57:28.218Z,74.77
2017-03-14T03:58:41.703Z,74.39
2017-03-14T03:59:55.141Z,74.2
2017-03-14T04:01:08.875Z,74.49
2017-03-14T04:02:22.510Z,73.72
2017-03-14T04:03:36.483Z,73.82
2017-03-14T04:04:49.955Z,73.63
2017-03-14T04:06:03.370Z,73.72
2017-03-14T04:07:17.207Z,73.63
2017-03-14T04:08:30.663Z,73.63
2017-03-14T04:09:44.113Z,73.82
2017-03-14T04:10:57.563Z,74.01
2017-03-14T04:12:11.490Z,73.82
2017-03-14T04:13:24.902Z,73.92
2017-03-14T04:14:38.405Z,74.01
2017-03-14T04:15:51.921Z,74.2
2017-03-14T04:17:05.391Z,73.92
2017-03-14T04:18:19.175Z,73.72
2017-03-14T04:19:33.494Z,73.92
2017-03-14T04:20:46.944Z,73.72
2017-03-14T04:22:00.466Z,74.58
2017-03-14T04:23:13.969Z,74.58
2017-03-14T04:24:27.436Z,74.83
2017-03-14T04:25:41.201Z,74.45
2017-03-14T04:26:54.711Z,74.96
2017-03-14T04:28:08.187Z,74.87
2017-03-14T04:29:21.787Z,74.68
2017-03-14T04:30:35.203Z,74.58
2017-03-14T04:31:49.054Z,75.11
2017-03-14T04:33:02.486Z,75.15
2017-03-14T04:34:15.987Z,74.58
2017-03-14T04:35:29.904Z,75.15
2017-03-14T04:36:43.365Z,75.43
2017-03-14T04:37:56.804Z,74.68
2017-03-14T04:39:42.405Z,74.3
2017-03-14T04:40:56.094Z,74.11
2017-03-14T04:42:09.962Z,74.2
2017-03-14T04:43:23.498Z,74.2
2017-03-14T04:44:36.978Z,73.72
2017-03-14T04:45:52.655Z,73.72
2017-03-14T04:47:06.074Z,73.44
2017-03-14T04:48:19.614Z,73.82
2017-03-14T04:49:33.536Z,73.63
2017-03-14T04:50:46.991Z,73.44
2017-03-14T04:52:00.479Z,73.63
2017-03-14T04:53:13.989Z,73.07
2017-03-14T04:54:27.576Z,72.68
2017-03-14T04:55:41.025Z,72.49
2017-03-14T04:56:54.450Z,72.49
2017-03-14T04:58:07.859Z,72.4
2017-03-14T04:59:21.513Z,72.68
2017-03-14T05:00:35.009Z,72.88
2017-03-14T05:01:48.900Z,72.49
2017-03-14T05:03:02.343Z,72.68
2017-03-14T05:04:16.695Z,72.49
2017-03-14T05:05:30.155Z,72.59
2017-03-14T05:06:43.674Z,72.97
2017-03-14T05:07:57.521Z,72.59
2017-03-14T05:09:11.226Z,72.59
2017-03-14T05:10:24.813Z,72.3
2017-03-14T05:11:38.210Z,72.4
2017-03-14T05:12:51.719Z,73.16
2017-03-14T05:14:05.464Z,73.16
2017-03-14T05:15:33.859Z,72.88
2017-03-14T05:16:47.560Z,72.78
2017-03-14T05:18:01.038Z,73.54
2017-03-14T05:19:14.476Z,74.2
2017-03-14T05:20:28.209Z,74.39
2017-03-14T05:21:42.532Z,74.01
2017-03-14T05:23:00.502Z,74.49
2017-03-14T05:24:14.431Z,74.16
2017-03-14T05:25:28.024Z,73.97
2017-03-14T05:26:42.362Z,74.49
2017-03-14T05:27:55.838Z,74.2
2017-03-14T05:29:10.203Z,74.01
2017-03-14T05:30:24.055Z,74.2
2017-03-14T05:31:37.610Z,74.96
2017-03-14T05:32:51.033Z,77.14
2017-03-14T05:34:04.631Z,77.71
2017-03-14T05:35:18.111Z,75.81
2017-03-14T05:36:31.583Z,74.87
2017-03-14T05:37:45.504Z,74.3
2017-03-14T05:38:59.340Z,73.82
2017-03-14T05:40:12.797Z,73.44
2017-03-14T05:41:26.231Z,73.16
2017-03-14T05:42:40.317Z,72.88
2017-03-14T05:43:54.250Z,73.25
2017-03-14T05:45:07.716Z,73.07
2017-03-14T05:46:21.585Z,73.25
2017-03-14T05:47:35.104Z,73.92
2017-03-14T05:48:49.037Z,73.44
2017-03-14T05:50:02.543Z,73.25
2017-03-14T05:51:15.986Z,73.63
2017-03-14T05:52:29.895Z,73.63
2017-03-14T05:53:43.405Z,73.72
2017-03-14T05:54:56.922Z,73.92
2017-03-14T05:56:10.538Z,74.39
2017-03-14T05:57:24.418Z,74.01
2017-03-14T05:58:37.918Z,74.3
2017-03-14T05:59:51.788Z,74.3
2017-03-14T06:01:05.260Z,74.68
2017-03-14T06:02:20.994Z,74.01
2017-03-14T06:03:35.092Z,74.2
2017-03-14T06:04:48.620Z,74.39
2017-03-14T06:06:02.095Z,74.39
2017-03-14T06:07:15.537Z,74.68
2017-03-14T06:08:29.547Z,74.01
2017-03-14T06:09:43.451Z,74.2
2017-03-14T06:10:58.025Z,74.39
2017-03-14T06:12:11.535Z,74.3
2017-03-14T06:13:24.995Z,74.3
2017-03-14T06:14:39.356Z,74.2
2017-03-14T06:15:53.284Z,74.49
2017-03-14T06:17:06.740Z,74.49
2017-03-14T06:18:20.664Z,74.3
2017-03-14T06:19:35.007Z,73.92
2017-03-14T06:20:48.491Z,74.01
2017-03-14T06:22:02.050Z,73.72
2017-03-14T06:23:15.518Z,73.63
2017-03-14T06:24:28.949Z,73.72
2017-03-14T06:25:42.499Z,73.72
2017-03-14T06:26:56.435Z,73.92
2017-03-14T06:28:11.317Z,73.63
2017-03-14T06:29:24.841Z,73.72
2017-03-14T06:30:38.410Z,73.72
2017-03-14T06:31:51.961Z,74.3
2017-03-14T06:33:05.747Z,74.3
2017-03-14T06:34:20.024Z,74.49
2017-03-14T06:35:34.713Z,74.2
2017-03-14T06:36:48.608Z,74.49
2017-03-14T06:38:02.196Z,74.3
2017-03-14T06:39:15.758Z,74.2
2017-03-14T06:40:30.118Z,74.2
2017-03-14T06:41:43.632Z,74.39
2017-03-14T06:42:57.193Z,73.82
2017-03-14T06:44:10.693Z,74.05
2017-03-14T06:45:24.674Z,73.67
2017-03-14T06:46:39.098Z,73.96
2017-03-14T06:47:53.043Z,73.48
2017-03-14T06:49:06.565Z,73.1
2017-03-14T06:50:20.622Z,72.53
2017-03-14T06:51:34.692Z,72.81
2017-03-14T06:52:48.640Z,73.19
2017-03-14T06:54:02.476Z,73.29
2017-03-14T06:55:15.968Z,72.53
2017-03-14T06:56:29.470Z,72.91
2017-03-14T06:57:43.444Z,73.48
2017-03-14T06:58:57.814Z,73.86
2017-03-14T07:00:11.760Z,74.05
2017-03-14T07:01:25.233Z,73.57
2017-03-14T07:02:39.072Z,73.1
2017-03-14T07:03:53.037Z,73.1
2017-03-14T07:05:06.763Z,72.53
2017-03-14T07:06:20.303Z,72.47
2017-03-14T07:07:33.901Z,72.38
2017-03-14T07:08:48.981Z,72.09
2017-03-14T07:10:02.545Z,72.19
2017-03-14T07:11:16.105Z,72.19
2017-03-14T07:12:30.473Z,71.9
2017-03-14T07:13:43.994Z,72.09
2017-03-14T07:14:57.512Z,72.09
2017-03-14T07:16:11.068Z,71.81
2017-03-14T07:17:24.771Z,71.43
2017-03-14T07:18:40.560Z,71.9
2017-03-14T07:19:54.575Z,71.23
2017-03-14T07:21:08.053Z,71.52
2017-03-14T07:22:21.858Z,71.71
2017-03-14T07:23:35.400Z,71.04
2017-03-14T07:24:48.945Z,70.76
2017-03-14T07:26:02.885Z,70.95
2017-03-14T07:27:16.493Z,70.57
2017-03-14T07:28:30.823Z,70.57
2017-03-14T07:29:44.324Z,70.32
2017-03-14T07:30:57.877Z,70.42
2017-03-14T07:32:11.873Z,69.94
2017-03-14T07:33:25.994Z,69.94
2017-03-14T07:34:39.941Z,69.66
2017-03-14T07:35:53.936Z,69.27
2017-03-14T07:37:07.388Z,69.66
2017-03-14T07:38:20.924Z,69.09
2017-03-14T07:39:35.138Z,69.09
2017-03-14T07:40:48.946Z,68.93
2017-03-14T07:42:02.498Z,68.55
2017-03-14T07:44:20.818Z,69.12
2017-03-14T07:45:34.377Z,68.65
2017-03-14T07:46:48.171Z,68.46
2017-03-14T07:48:02.067Z,68.84
2017-03-14T07:49:15.582Z,69.02
2017-03-14T07:50:29.195Z,68.93
2017-03-14T07:51:42.646Z,69.02
2017-03-14T07:52:59.534Z,68.55
2017-03-14T07:54:13.017Z,68.46
2017-03-14T07:55:27.438Z,68.55
2017-03-14T07:56:40.948Z,68.84
2017-03-14T07:57:54.913Z,69.02
2017-03-14T07:59:10.062Z,68.36
2017-03-14T08:00:23.573Z,69.12
2017-03-14T08:01:37.104Z,68.93
2017-03-14T08:02:50.573Z,68.84
2017-03-14T08:04:04.088Z,68.84
2017-03-14T08:05:17.594Z,68.4
2017-03-14T08:06:31.219Z,68.49
2017-03-14T08:07:44.866Z,68.49
2017-03-14T08:08:58.335Z,68.4
2017-03-14T08:10:11.800Z,68.59
2017-03-14T08:11:25.442Z,68.21
2017-03-14T08:12:38.861Z,68.4
2017-03-14T08:13:52.536Z,68.49
2017-03-14T08:15:06.005Z,68.11
2017-03-14T08:16:19.666Z,68.77
2017-03-14T08:17:33.211Z,68.24
2017-03-14T08:18:47.218Z,68.15
2017-03-14T08:20:01.497Z,68.52
2017-03-14T08:22:28.429Z,68.52
2017-03-14T08:23:42.626Z,68.15
2017-03-14T08:24:56.655Z,68.33
2017-03-14T08:26:10.139Z,68.24
2017-03-14T08:27:23.652Z,68.33
2017-03-14T08:28:37.211Z,68.43
2017-03-14T08:29:50.811Z,68.46
2017-03-14T08:31:05.252Z,68.56
2017-03-14T08:32:19.293Z,68.27
2017-03-14T08:33:32.852Z,68.65
2017-03-14T08:34:46.834Z,68.65
2017-03-14T08:36:02.851Z,68.56
2017-03-14T08:37:16.350Z,68.18
2017-03-14T08:38:30.577Z,67.93
2017-03-14T08:39:44.547Z,67.64
2017-03-14T08:40:58.179Z,67.45
2017-03-14T08:42:11.961Z,67.74
2017-03-14T08:43:26.602Z,67.74
2017-03-14T08:44:40.398Z,66.97
2017-03-14T08:45:53.969Z,66.72
2017-03-14T08:47:07.556Z,66.44
2017-03-14T08:48:21.522Z,66.72
2017-03-14T08:49:35.098Z,65.86
2017-03-14T08:50:48.685Z,65.58
2017-03-14T08:52:02.664Z,66.44
2017-03-14T08:53:16.303Z,65.77
2017-03-14T08:54:30.480Z,66.05
2017-03-14T08:55:44.787Z,67.23
2017-03-14T08:56:58.341Z,66.53
2017-03-14T08:58:12.250Z,65.86
2017-03-14T08:59:25.742Z,65.7
2017-03-14T09:00:39.519Z,65.7
2017-03-14T09:01:53.093Z,65.89
2017-03-14T09:03:07.159Z,65.7
2017-03-14T09:04:21.249Z,65.8
2017-03-14T09:05:35.757Z,65.52
2017-03-14T09:06:49.661Z,64.94
2017-03-14T09:08:03.636Z,64.78
2017-03-14T09:09:17.350Z,64.4
2017-03-14T09:10:31.005Z,64.69
2017-03-14T09:11:44.432Z,64.31
2017-03-14T09:12:57.897Z,64.21
2017-03-14T09:14:11.861Z,63.83
2017-03-14T09:15:25.484Z,63.57
2017-03-14T09:16:39.057Z,63.2
2017-03-14T09:17:53.104Z,63.48
2017-03-14T09:19:06.995Z,63.29
2017-03-14T09:20:21.014Z,63.2
2017-03-14T09:21:34.899Z,62.81
2017-03-14T09:22:48.774Z,62.71
2017-03-14T09:24:02.351Z,62.81
2017-03-14T09:27:47.173Z,63.67
2017-03-14T09:29:00.639Z,63.96
2017-03-14T09:30:14.815Z,63.2
2017-03-14T09:31:28.858Z,62.52
2017-03-14T09:32:42.375Z,62.84
2017-03-14T09:33:55.929Z,62.18
2017-03-14T09:35:15.989Z,61.98
2017-03-14T09:36:29.881Z,62.46
2017-03-14T09:37:43.612Z,62.37
2017-03-14T09:38:57.056Z,61.22
2017-03-14T09:40:11.399Z,61.13
2017-03-14T09:41:25.000Z,60.93
2017-03-14T09:42:39.587Z,61.03
2017-03-14T09:43:53.444Z,61.13
2017-03-14T09:45:07.167Z,61.51
2017-03-14T09:46:20.630Z,62.05
2017-03-14T09:47:34.240Z,61.66
2017-03-14T09:48:47.689Z,61.29
2017-03-14T09:50:01.453Z,61.66
2017-03-14T09:51:16.347Z,61.95
2017-03-14T09:52:29.925Z,62.34
2017-03-14T09:53:45.936Z,61.76
2017-03-14T09:54:59.425Z,61.66
2017-03-14T09:56:13.491Z,62.05
2017-03-14T09:57:27.363Z,62.15
2017-03-14T09:58:41.407Z,61.95
2017-03-14T09:59:54.947Z,61.86
2017-03-14T10:01:09.026Z,61.47
2017-03-14T10:02:23.278Z,61
2017-03-14T10:03:36.852Z,60.64
2017-03-14T10:04:50.491Z,60.55
2017-03-14T10:06:04.003Z,60.04
2017-03-14T10:07:18.078Z,60.17
2017-03-14T10:08:32.455Z,60.17
2017-03-14T10:09:46.570Z,59.69
2017-03-14T10:11:00.510Z,59.78
2017-03-14T10:12:14.118Z,59.59
2017-03-14T10:13:28.227Z,59.66
2017-03-14T10:14:42.049Z,58.7
2017-03-14T10:15:55.607Z,58.64
2017-03-14T10:17:09.699Z,59.12
2017-03-14T10:18:23.853Z,58.93
2017-03-14T10:19:37.894Z,59.02
2017-03-14T10:20:51.683Z,58.64
2017-03-14T10:23:19.235Z,58.83
2017-03-14T10:24:33.111Z,58.83
2017-03-14T10:25:47.225Z,58.64
2017-03-14T10:27:01.173Z,58.36
2017-03-14T10:28:15.400Z,57.59
2017-03-14T10:29:28.992Z,57.59
2017-03-14T10:30:43.088Z,57.02
2017-03-14T10:31:57.086Z,56.63
2017-03-14T10:33:11.231Z,56.54
2017-03-14T10:34:24.685Z,56.73
2017-03-14T10:35:38.841Z,57.21
2017-03-14T10:36:52.679Z,57.02
2017-03-14T10:38:06.868Z,57.02
2017-03-14T10:39:20.725Z,57.78
2017-03-14T10:40:34.468Z,57.97
2017-03-14T10:41:47.921Z,57.68
2017-03-14T10:43:01.423Z,57.78
2017-03-14T10:44:14.969Z,58.16
2017-03-14T10:45:28.782Z,58.45
2017-03-14T10:46:42.321Z,57.78
2017-03-14T10:47:55.843Z,57.21
2017-03-14T10:49:09.887Z,56.63
2017-03-14T10:50:23.580Z,56.28
2017-03-14T10:51:37.881Z,56.18
2017-03-14T10:52:51.394Z,55.52
2017-03-14T10:54:05.296Z,55.23
2017-03-14T10:55:19.313Z,54.56
2017-03-14T10:56:32.794Z,54.37
2017-03-14T10:57:46.685Z,54.47
2017-03-14T10:59:00.347Z,52.94
2017-03-14T11:00:14.189Z,52.94
2017-03-14T11:01:27.723Z,52.84
2017-03-14T11:02:41.204Z,53.22
2017-03-14T11:03:55.159Z,51.03
2017-03-14T11:05:09.075Z,48.93
2017-03-14T11:06:22.647Z,49.88
2017-03-14T11:07:36.282Z,49.88
2017-03-14T11:08:52.191Z,50.93
2017-03-14T11:10:08.273Z,51.41
2017-03-14T11:11:21.759Z,51.6
2017-03-14T11:12:35.986Z,52.26
2017-03-14T11:13:53.980Z,52.84
2017-03-14T11:15:15.567Z,53.22
2017-03-14T11:16:32.893Z,53.13
2017-03-14T11:17:46.868Z,53.03
2017-03-14T11:19:01.551Z,52.94
2017-03-14T11:20:19.979Z,52.87
2017-03-14T11:21:37.344Z,52.48
2017-03-14T11:22:58.971Z,52.01
2017-03-14T11:24:12.816Z,51.34
2017-03-14T11:25:28.296Z,51.15
2017-03-14T11:26:42.725Z,49.8
2017-03-14T11:27:57.149Z,50
2017-03-14T11:29:13.419Z,50.09
2017-03-14T11:30:27.473Z,50.19
2017-03-14T11:31:41.611Z,50.38
2017-03-14T11:32:55.212Z,50.19
2017-03-14T11:34:08.677Z,49.9
2017-03-14T11:35:22.524Z,49.71
2017-03-14T11:36:37.681Z,50
2017-03-14T11:37:55.277Z,49.71
2017-03-14T11:39:14.289Z,49.55
2017-03-14T11:40:29.950Z,49.74
2017-03-14T11:41:45.396Z,48.88
2017-03-14T11:42:58.840Z,49.43
2017-03-14T11:44:12.476Z,49.8
2017-03-14T11:45:26.338Z,49.52
2017-03-14T11:46:39.850Z,49.9
2017-03-14T11:47:53.419Z,49.8
2017-03-14T11:49:07.287Z,49.71
2017-03-14T11:50:20.952Z,49.74
2017-03-14T11:51:36.657Z,48.95
2017-03-14T11:52:50.290Z,49.07
2017-03-14T11:54:03.760Z,48.97
2017-03-14T11:55:17.578Z,48.97
2017-03-14T11:56:31.193Z,49.55
2017-03-14T11:57:44.665Z,49.07
2017-03-14T11:58:59.283Z,49.45
2017-03-14T12:00:13.622Z,50.31
2017-03-14T12:01:27.364Z,49.74
2017-03-14T12:02:41.047Z,49.35
2017-03-14T12:03:54.758Z,49.55
2017-03-14T12:05:08.282Z,49.55
2017-03-14T12:06:21.826Z,48.59
2017-03-14T12:07:35.870Z,49.07
2017-03-14T12:08:49.823Z,48.97
2017-03-14T12:10:03.490Z,49.55
2017-03-14T12:11:17.538Z,49.45
2017-03-14T12:12:31.074Z,49.09
2017-03-14T12:13:44.557Z,48.97
2017-03-14T12:14:58.387Z,48.71
2017-03-14T12:16:12.356Z,47.85
2017-03-14T12:17:26.363Z,47.47
2017-03-14T12:18:40.276Z,47.56
2017-03-14T12:19:54.190Z,48.02
2017-03-14T12:21:07.785Z,48.97
2017-03-14T12:22:21.418Z,48.39
2017-03-14T12:23:35.213Z,48.78
2017-03-14T12:24:49.111Z,48.39
2017-03-14T12:26:02.595Z,48.49
2017-03-14T12:27:18.582Z,48.78
2017-03-14T12:28:32.088Z,48.13
2017-03-14T12:29:45.615Z,48.23
2017-03-14T12:30:59.136Z,47.53
2017-03-14T12:32:12.749Z,47.56
2017-03-14T12:33:26.837Z,47.37
2017-03-14T12:34:40.311Z,47.27
2017-03-14T12:35:54.169Z,47.18
2017-03-14T12:37:08.523Z,47.08
2017-03-14T12:38:22.108Z,47.18
2017-03-14T12:39:35.774Z,47.27
2017-03-14T12:40:49.760Z,46.41
2017-03-14T12:42:04.231Z,46.61
2017-03-14T12:43:17.749Z,45.84
2017-03-14T12:45:13.596Z,45.74
2017-03-14T12:46:28.535Z,45.26
2017-03-14T12:47:42.389Z,45.74
2017-03-14T12:48:56.316Z,45.17
2017-03-14T12:50:10.218Z,44.52
2017-03-14T12:51:23.761Z,44.62
2017-03-14T12:52:37.850Z,43.95
2017-03-14T12:53:51.570Z,43.85
2017-03-14T12:55:05.400Z,43.95
2017-03-14T12:56:18.960Z,43.76
2017-03-14T12:57:32.759Z,43.76
2017-03-14T12:58:46.628Z,43.76
2017-03-14T13:00:00.524Z,43.37
2017-03-14T13:01:14.070Z,43.85
2017-03-14T13:02:28.345Z,43.56
2017-03-14T13:03:41.860Z,43.66
2017-03-14T13:05:10.699Z,43.66
2017-03-14T13:06:24.816Z,43.47
2017-03-14T13:07:38.777Z,43.27
2017-03-14T13:08:52.315Z,43.37
2017-03-14T13:10:05.910Z,42.99
2017-03-14T13:11:19.837Z,43.18
2017-03-14T13:12:33.697Z,42.91
2017-03-14T13:13:47.218Z,42.6
2017-03-14T13:15:00.778Z,42.63
2017-03-14T13:16:15.354Z,42.82
2017-03-14T13:17:28.908Z,43.01
2017-03-14T13:18:42.439Z,42.51
2017-03-14T13:19:56.592Z,42.51
2017-03-14T13:21:10.564Z,42.7
2017-03-14T13:22:24.050Z,42.51
2017-03-14T13:23:37.807Z,42.32
2017-03-14T13:24:51.630Z,42.44
2017-03-14T13:26:05.731Z,42.44
2017-03-14T13:27:19.572Z,42.72
2017-03-14T13:28:33.400Z,42.8
2017-03-14T13:29:47.061Z,42.22
2017-03-14T13:31:00.578Z,41.65
2017-03-14T13:32:15.018Z,42.13
2017-03-14T13:33:28.543Z,41.94
2017-03-14T13:34:42.150Z,41.77
2017-03-14T13:35:55.654Z,42.05
2017-03-14T13:37:23.984Z,42.05
2017-03-14T13:38:38.474Z,41.57
2017-03-14T13:39:51.979Z,41.57
2017-03-14T13:41:05.901Z,41.57
2017-03-14T13:42:20.206Z,41.28
2017-03-14T13:43:34.326Z,41.19
2017-03-14T13:44:50.721Z,41.38
2017-03-14T13:46:04.432Z,41.67
2017-03-14T13:47:18.915Z,41.96
2017-03-14T13:48:32.928Z,41.96
2017-03-14T13:49:47.256Z,41.65
2017-03-14T13:51:01.180Z,41.17
2017-03-14T13:52:15.381Z,41.38
2017-03-14T13:53:29.482Z,41.19
2017-03-14T13:54:43.340Z,41.57
2017-03-14T13:55:57.354Z,41.67
2017-03-14T13:57:11.794Z,41.67
2017-03-14T13:58:25.541Z,41.96
2017-03-14T13:59:39.205Z,41.86
2017-03-14T14:00:53.915Z,40.9
2017-03-14T14:02:07.772Z,40.71
2017-03-14T14:03:21.328Z,40.71
2017-03-14T14:04:35.279Z,40.52
2017-03-14T14:05:49.166Z,39.94
2017-03-14T14:07:03.566Z,39.94
2017-03-14T14:08:24.819Z,39.85
2017-03-14T14:09:38.917Z,40.42
2017-03-14T14:10:52.455Z,40.61
2017-03-14T14:12:06.061Z,40.06
2017-03-14T14:13:19.744Z,39.87
2017-03-14T14:14:34.053Z,39.47
2017-03-14T14:15:47.994Z,39.58
2017-03-14T14:17:01.535Z,39.2
2017-03-14T14:18:15.027Z,39.2
2017-03-14T14:19:28.513Z,39.2
2017-03-14T14:20:42.272Z,39.1
2017-03-14T14:21:55.813Z,38.43
2017-03-14T14:23:10.065Z,38.62
2017-03-14T14:24:23.703Z,38.05
2017-03-14T14:25:37.286Z,38.24
2017-03-14T14:26:50.748Z,38.43
2017-03-14T14:28:04.556Z,38.41
2017-03-14T14:29:18.727Z,38.32
2017-03-14T14:30:32.319Z,38.32
2017-03-14T14:31:45.842Z,38.51
2017-03-14T14:32:59.283Z,38.32
2017-03-14T14:34:12.786Z,38.12
2017-03-14T14:35:26.326Z,37.18
2017-03-14T14:36:40.097Z,37.26
2017-03-14T14:37:54.036Z,36.99
2017-03-14T14:39:07.918Z,36.99
2017-03-14T14:40:21.443Z,37.18
2017-03-14T14:41:35.902Z,37.09
2017-03-14T14:42:49.345Z,36.9
2017-03-14T14:44:03.111Z,36.4
2017-03-14T14:45:19.716Z,36.51
2017-03-14T14:46:37.070Z,36.32
2017-03-14T14:47:51.104Z,36.32
2017-03-14T14:49:04.536Z,36.32
2017-03-14T14:50:17.998Z,36.04
2017-03-14T14:51:31.440Z,35.84
2017-03-14T14:52:44.973Z,35.46
2017-03-14T14:53:59.220Z,35.27
2017-03-14T14:55:13.230Z,35.08
2017-03-14T14:56:26.755Z,34.59
2017-03-14T14:57:40.556Z,35.08
2017-03-14T14:59:00.292Z,34.88
2017-03-14T15:00:13.908Z,35.36
2017-03-14T15:01:30.364Z,35.27
2017-03-14T15:02:44.190Z,35
2017-03-14T15:03:57.739Z,34.9
2017-03-14T15:05:11.370Z,34.71
2017-03-14T15:06:25.015Z,35.1
2017-03-14T15:07:39.243Z,35.48
2017-03-14T15:08:52.817Z,35.67
2017-03-14T15:10:06.707Z,35.57
2017-03-14T15:11:20.412Z,35.48
2017-03-14T15:12:33.918Z,35.86
2017-03-14T15:13:47.494Z,36.05
2017-03-14T15:15:00.978Z,35.96
2017-03-14T15:16:14.550Z,35.77
2017-03-14T15:17:28.357Z,35.86
2017-03-14T15:18:41.874Z,35.96
2017-03-14T15:19:55.740Z,36.05
2017-03-14T15:21:09.605Z,35.86
2017-03-14T15:22:23.619Z,36.05
2017-03-14T15:23:37.340Z,35.77
2017-03-14T15:24:50.889Z,35.86
2017-03-14T15:26:05.126Z,35.19
2017-03-14T15:27:18.684Z,35.38
2017-03-14T15:29:05.760Z,35.48
2017-03-14T15:30:20.108Z,35.48
2017-03-14T15:31:34.133Z,36.05
2017-03-14T15:32:48.922Z,36.04
2017-03-14T15:34:02.682Z,36.63
2017-03-14T15:35:17.595Z,36.44
2017-03-14T15:36:31.383Z,36.24
2017-03-14T15:37:46.003Z,36.34
2017-03-14T15:38:59.823Z,36.44
2017-03-14T15:40:13.329Z,36.42
2017-03-14T15:41:26.873Z,38.45
2017-03-14T15:42:40.757Z,39.79
2017-03-14T15:43:54.309Z,43.24
2017-03-14T15:45:08.194Z,40.58
2017-03-14T15:46:22.499Z,38.28
2017-03-14T15:47:36.854Z,36.47
2017-03-14T15:48:50.796Z,35.71
2017-03-14T15:50:05.797Z,34.45
2017-03-14T15:51:20.021Z,34.55
2017-03-14T15:52:34.641Z,34.17
2017-03-14T15:53:52.606Z,34.75
2017-03-14T15:55:07.144Z,34.55
2017-03-14T15:56:21.446Z,33.78
2017-03-14T15:57:35.750Z,34.92
2017-03-14T15:58:50.081Z,34.92
2017-03-14T16:00:04.175Z,34.92
2017-03-14T16:01:17.793Z,34.36
2017-03-14T16:02:31.281Z,33.88
2017-03-14T16:03:44.847Z,34.06
2017-03-14T16:04:58.823Z,33.96